createdAt,value
2023-02-21T07:47:15.059Z,85.50
2023-02-21T07:49:42.470Z,85.80
2023-02-21T07:52:09.764Z,85.70
2023-02-21T07:54:37.075Z,85.80
2023-02-21T07:57:04.954Z,85.60
2023-02-21T07:59:32.423Z,85.20
2023-02-21T08:01:59.783Z,84.90
2023-02-21T08:04:27.163Z,84.40
2023-02-21T08:07:01.596Z,84.20
2023-02-21T08:09:28.906Z,83.90
2023-02-21T08:11:56.199Z,83.80
2023-02-21T08:14:23.543Z,83.60
2023-02-21T08:16:50.994Z,83.30
2023-02-21T08:19:18.343Z,83.00
2023-02-21T08:21:50.090Z,82.90
2023-02-21T08:24:19.164Z,82.50
2023-02-21T08:26:46.938Z,82.40
2023-02-21T08:29:18.028Z,82.00
2023-02-21T08:31:45.554Z,81.50
2023-02-21T08:34:14.259Z,81.40
2023-02-21T08:36:44.098Z,81.20
2023-02-21T08:39:12.126Z,81.20
2023-02-21T08:41:45.040Z,80.70
2023-02-21T08:44:16.896Z,81.30
2023-02-21T08:46:45.194Z,80.10
2023-02-21T08:49:12.486Z,79.80
2023-02-21T08:51:40.332Z,79.60
2023-02-21T08:54:08.438Z,78.90
2023-02-21T08:56:35.823Z,78.80
2023-02-21T08:59:04.539Z,78.30
2023-02-21T09:01:36.151Z,77.90
2023-02-21T09:04:06.641Z,77.60
2023-02-21T09:06:34.097Z,77.10
2023-02-21T09:09:01.415Z,76.80
2023-02-21T09:11:29.414Z,76.40
2023-02-21T09:13:56.714Z,76.20
2023-02-21T09:16:24.159Z,75.70
2023-02-21T09:19:01.335Z,75.40
2023-02-21T09:21:29.220Z,74.60
2023-02-21T09:23:59.271Z,74.30
2023-02-21T09:26:27.112Z,73.80
2023-02-21T09:28:54.473Z,73.30
2023-02-21T09:31:22.178Z,73.10
2023-02-21T09:33:49.478Z,72.60
2023-02-21T09:36:17.169Z,71.90
2023-02-21T09:38:44.501Z,71.80
2023-02-21T09:41:14.639Z,71.00
2023-02-21T09:43:48.545Z,70.50
2023-02-21T09:46:50.687Z,69.80
2023-02-21T09:49:42.049Z,69.60
2023-02-21T09:52:41.213Z,68.40
2023-02-21T09:55:39.713Z,67.70
2023-02-21T09:58:19.934Z,67.20
2023-02-21T10:00:47.614Z,66.80
2023-02-21T10:03:49.325Z,66.90
2023-02-21T10:06:53.098Z,65.60
2023-02-21T10:10:02.243Z,65.40
2023-02-21T10:13:18.685Z,64.50
2023-02-21T10:16:15.943Z,64.30
2023-02-21T10:19:13.215Z,63.40
2023-02-21T10:21:49.499Z,62.80
2023-02-21T10:24:25.722Z,62.00
2023-02-21T10:27:17.011Z,61.40
2023-02-21T10:30:19.166Z,60.50
2023-02-21T10:32:46.586Z,60.00
2023-02-21T10:35:14.071Z,59.70
2023-02-21T10:38:07.806Z,59.70
2023-02-21T10:40:59.524Z,59.30
2023-02-21T10:43:35.686Z,59.00
2023-02-21T10:46:30.824Z,58.40
2023-02-21T10:49:28.944Z,58.10
2023-02-21T10:52:48.750Z,57.00
2023-02-21T10:55:32.623Z,57.10
2023-02-21T10:58:18.759Z,57.00
2023-02-21T11:00:48.290Z,57.10
2023-02-21T11:03:27.511Z,57.80
2023-02-21T11:05:58.130Z,55.70
2023-02-21T11:08:42.389Z,56.00
2023-02-21T11:11:11.717Z,55.10
2023-02-21T11:13:39.246Z,55.50
2023-02-21T11:16:24.682Z,55.40
2023-02-21T11:19:07.927Z,53.50
2023-02-21T11:21:35.279Z,52.90
2023-02-21T11:24:08.143Z,53.00
2023-02-21T11:26:52.021Z,53.90
2023-02-21T11:29:25.890Z,51.80
2023-02-21T11:31:56.912Z,51.10
2023-02-21T11:34:30.168Z,51.90
2023-02-21T11:37:04.610Z,51.50
2023-02-21T11:39:34.589Z,51.50
2023-02-21T11:42:32.944Z,49.00
2023-02-21T11:45:29.609Z,49.60
2023-02-21T11:48:15.852Z,47.80
2023-02-21T11:50:53.482Z,46.70
2023-02-21T11:53:42.394Z,46.50
2023-02-21T11:57:14.415Z,47.30
2023-02-21T12:00:47.114Z,46.40
2023-02-21T12:04:15.361Z,46.30
2023-02-21T12:07:30.337Z,45.40
2023-02-21T12:10:41.429Z,44.40
2023-02-21T12:14:04.210Z,42.80
2023-02-21T12:16:56.327Z,42.70
2023-02-21T12:20:15.369Z,43.00
2023-02-21T12:23:55.556Z,41.40
2023-02-21T12:27:46.513Z,41.10
2023-02-21T12:31:11.956Z,41.10
2023-02-21T12:34:22.736Z,40.70
2023-02-21T12:37:33.494Z,41.20
2023-02-21T12:40:48.568Z,42.50
2023-02-21T12:44:08.156Z,39.90
2023-02-21T12:47:06.648Z,40.30
2023-02-21T12:50:21.758Z,40.10
2023-02-21T12:53:18.027Z,38.80
2023-02-21T12:56:19.331Z,38.60
2023-02-21T12:59:35.103Z,37.80
2023-02-21T13:02:50.753Z,37.80
2023-02-21T13:05:33.927Z,38.60
2023-02-21T13:09:06.649Z,38.40
2023-02-21T13:12:21.382Z,38.30
2023-02-21T13:15:13.363Z,37.50
2023-02-21T13:17:42.673Z,37.50
2023-02-21T13:20:22.251Z,38.10
2023-02-21T13:23:03.187Z,37.70
2023-02-21T13:26:04.312Z,37.60
2023-02-21T13:28:36.704Z,38.00
2023-02-21T13:31:17.753Z,38.50
2023-02-21T13:33:53.101Z,37.60
2023-02-21T13:37:06.086Z,37.20
2023-02-21T13:39:38.781Z,38.00
2023-02-21T13:42:19.500Z,37.60
2023-02-21T13:45:16.031Z,37.40
2023-02-21T13:47:59.914Z,37.20
2023-02-21T13:50:39.522Z,38.10
2023-02-21T13:53:24.572Z,37.60
2023-02-21T13:56:06.423Z,37.50
2023-02-21T13:58:49.240Z,37.10
2023-02-21T14:01:43.645Z,37.20
2023-02-21T14:04:57.652Z,37.30
2023-02-21T14:07:59.016Z,36.70
2023-02-21T14:10:55.354Z,36.30
2023-02-21T14:13:58.909Z,36.60
2023-02-21T14:16:59.127Z,36.80
2023-02-21T14:19:48.830Z,36.90
2023-02-21T14:22:32.184Z,37.50
2023-02-21T14:25:24.773Z,38.10
2023-02-21T14:27:53.915Z,37.80
2023-02-21T14:30:33.779Z,38.50
2023-02-21T14:33:26.975Z,38.50
2023-02-21T14:36:08.254Z,38.80
2023-02-21T14:38:44.409Z,39.20
2023-02-21T14:41:20.888Z,39.90
2023-02-21T14:44:25.677Z,39.40
2023-02-21T14:47:52.096Z,39.20
2023-02-21T14:51:06.649Z,40.00
2023-02-21T14:54:25.960Z,39.60
2023-02-21T14:57:48.989Z,40.00
2023-02-21T15:00:19.163Z,40.10
2023-02-21T15:03:07.297Z,40.00
2023-02-21T15:06:18.332Z,40.00
2023-02-21T15:08:50.672Z,40.30
2023-02-21T15:11:39.892Z,40.20
2023-02-21T15:14:29.416Z,40.70
2023-02-21T15:17:13.153Z,40.60
2023-02-21T15:19:40.546Z,40.50
2023-02-21T15:22:27.999Z,41.00
2023-02-21T15:25:10.856Z,41.00
2023-02-21T15:27:57.561Z,40.80
2023-02-21T15:30:41.903Z,41.60
2023-02-21T15:33:21.333Z,41.90
2023-02-21T15:36:02.165Z,42.60
2023-02-21T15:39:14.192Z,42.10
2023-02-21T15:41:50.215Z,42.00
2023-02-21T15:44:37.570Z,42.00
2023-02-21T15:47:26.759Z,41.90
2023-02-21T15:50:29.366Z,41.90
2023-02-21T15:52:56.771Z,41.80
2023-02-21T15:55:31.123Z,41.80
2023-02-21T15:58:26.957Z,41.90
2023-02-21T16:01:11.306Z,41.20
2023-02-21T16:03:43.529Z,41.50
2023-02-21T16:06:32.309Z,41.70
2023-02-21T16:09:34.843Z,40.90
2023-02-21T16:12:38.210Z,41.10
2023-02-21T16:15:19.025Z,40.90
2023-02-21T16:18:01.537Z,40.40
2023-02-21T16:20:40.456Z,41.10
2023-02-21T16:23:33.986Z,40.30
2023-02-21T16:26:09.837Z,40.60
2023-02-21T16:28:40.957Z,40.50
2023-02-21T16:31:26.647Z,40.30
2023-02-21T16:33:54.018Z,40.50
2023-02-21T16:36:30.554Z,40.70
2023-02-21T16:38:59.458Z,40.20
2023-02-21T16:41:27.342Z,39.90
2023-02-21T16:43:54.656Z,40.30
2023-02-21T16:46:30.198Z,40.70
2023-02-21T16:48:59.011Z,41.00
2023-02-21T16:51:33.600Z,41.40
2023-02-21T16:54:02.479Z,41.80
2023-02-21T16:56:30.000Z,41.60
2023-02-21T16:58:57.620Z,41.50
2023-02-21T17:01:32.366Z,41.30
2023-02-21T17:04:01.596Z,41.50
2023-02-21T17:06:29.511Z,41.60
2023-02-21T17:08:58.799Z,42.00
2023-02-21T17:11:27.425Z,42.10
2023-02-21T17:13:54.722Z,42.20
2023-02-21T17:16:22.161Z,42.60
2023-02-21T17:18:49.530Z,42.70
2023-02-21T17:21:17.140Z,43.20
2023-02-21T17:23:44.717Z,43.80
2023-02-21T17:26:13.107Z,44.40
2023-02-21T17:28:40.521Z,44.80
2023-02-21T17:31:07.893Z,45.30
2023-02-21T17:33:35.684Z,45.60
2023-02-21T17:36:03.195Z,46.10
2023-02-21T17:38:30.504Z,46.50
2023-02-21T17:40:58.265Z,47.00
2023-02-21T17:43:25.588Z,47.30
2023-02-21T17:45:52.927Z,47.80
2023-02-21T17:48:20.264Z,48.10
2023-02-21T17:50:47.597Z,48.60
2023-02-21T17:53:14.938Z,48.40
2023-02-21T17:55:43.124Z,48.70
2023-02-21T17:58:10.553Z,48.90
2023-02-21T18:00:39.251Z,49.50
2023-02-21T18:03:07.579Z,50.00
2023-02-21T18:05:37.423Z,50.50
2023-02-21T18:08:05.641Z,51.00
2023-02-21T18:10:32.966Z,51.60
2023-02-21T18:13:00.241Z,51.80
2023-02-21T18:15:28.945Z,52.60
2023-02-21T18:18:03.915Z,52.90
2023-02-21T18:20:32.089Z,53.40
2023-02-21T18:22:59.597Z,53.10
2023-02-21T18:25:27.337Z,53.60
2023-02-21T18:27:55.120Z,53.60
2023-02-21T18:30:23.279Z,53.60
2023-02-21T18:32:51.063Z,53.90
2023-02-21T18:35:18.745Z,54.30
2023-02-21T18:37:47.246Z,54.40
2023-02-21T18:40:18.534Z,55.10
2023-02-21T18:42:47.754Z,55.30
2023-02-21T18:45:15.144Z,55.50
2023-02-21T18:47:42.470Z,56.10
2023-02-21T18:50:10.300Z,56.80
2023-02-21T18:52:37.579Z,57.10
2023-02-21T18:55:06.113Z,57.60
2023-02-21T18:57:34.250Z,57.60
2023-02-21T19:00:01.613Z,57.70
2023-02-21T19:02:29.101Z,58.10
2023-02-21T19:04:56.418Z,58.40
2023-02-21T19:07:24.302Z,58.70
2023-02-21T19:09:51.645Z,58.70
2023-02-21T19:12:19.335Z,59.20
2023-02-21T19:14:46.661Z,59.60
2023-02-21T19:17:13.997Z,59.90
2023-02-21T19:19:41.441Z,59.70
2023-02-21T19:22:08.894Z,60.60
2023-02-21T19:24:36.294Z,60.90
2023-02-21T19:27:04.024Z,61.00
2023-02-21T19:29:31.354Z,61.20
2023-02-21T19:31:58.811Z,61.50
2023-02-21T19:34:26.307Z,62.10
2023-02-21T19:36:53.710Z,62.40
2023-02-21T19:39:21.046Z,62.00
2023-02-21T19:41:48.503Z,62.00
2023-02-21T19:44:16.074Z,61.40
2023-02-21T19:46:43.648Z,61.20
2023-02-21T19:49:18.094Z,62.40
2023-02-21T19:51:50.397Z,62.80
2023-02-21T19:54:25.125Z,62.60
2023-02-21T19:56:52.515Z,63.30
2023-02-21T19:59:19.813Z,63.10
2023-02-21T20:01:47.188Z,63.20
2023-02-21T20:04:16.873Z,62.60
2023-02-21T20:06:46.192Z,62.30
2023-02-21T20:09:13.952Z,62.20
2023-02-21T20:11:41.363Z,61.40
2023-02-21T20:14:11.277Z,60.20
2023-02-21T20:16:43.920Z,59.80
2023-02-21T20:19:13.654Z,59.80
2023-02-21T20:21:41.434Z,59.90
2023-02-21T20:24:10.253Z,59.90
2023-02-21T20:26:38.902Z,59.90
2023-02-21T20:29:07.032Z,59.90
2023-02-21T20:31:37.380Z,60.00
2023-02-21T20:34:06.844Z,60.10
2023-02-21T20:36:39.231Z,60.10
2023-02-21T20:39:19.772Z,60.50
2023-02-21T20:41:47.347Z,60.40
2023-02-21T20:44:15.361Z,60.30
2023-02-21T20:46:42.730Z,60.40
2023-02-21T20:49:14.170Z,60.30
2023-02-21T20:51:44.068Z,60.20
2023-02-21T20:54:20.155Z,60.20
2023-02-21T20:56:56.779Z,60.60
2023-02-21T20:59:38.881Z,60.70
2023-02-21T21:02:08.294Z,61.00
2023-02-21T21:04:43.292Z,60.70
2023-02-21T21:07:22.362Z,60.90
2023-02-21T21:09:50.868Z,61.10
2023-02-21T21:12:23.502Z,61.20
2023-02-21T21:14:55.521Z,61.40
2023-02-21T21:17:22.899Z,61.20
2023-02-21T21:19:51.047Z,62.00
2023-02-21T21:22:27.207Z,63.60
2023-02-21T21:24:55.530Z,63.50
2023-02-21T21:27:23.900Z,64.60
2023-02-21T21:29:53.724Z,64.90
2023-02-21T21:32:24.590Z,65.10
2023-02-21T21:34:56.753Z,65.80
2023-02-21T21:37:29.307Z,65.80
2023-02-21T21:39:57.259Z,66.00
2023-02-21T21:42:29.233Z,65.70
2023-02-21T21:44:57.659Z,65.80
2023-02-21T21:47:32.108Z,65.80
2023-02-21T21:50:02.356Z,65.60
2023-02-21T21:52:29.946Z,65.40
2023-02-21T21:54:58.247Z,65.50
2023-02-21T21:57:28.447Z,65.30
2023-02-21T21:59:56.162Z,65.60
2023-02-21T22:02:23.517Z,65.60
2023-02-21T22:04:53.352Z,66.10
2023-02-21T22:07:20.889Z,67.00
2023-02-21T22:09:48.153Z,67.30
2023-02-21T22:12:20.963Z,67.80
2023-02-21T22:14:49.953Z,67.90
2023-02-21T22:17:17.320Z,67.50
2023-02-21T22:19:45.358Z,68.20
2023-02-21T22:22:13.681Z,68.10
2023-02-21T22:24:40.997Z,68.10
2023-02-21T22:27:08.307Z,68.30
2023-02-21T22:29:35.929Z,68.60
2023-02-21T22:32:03.291Z,68.20
2023-02-21T22:34:30.623Z,67.80
2023-02-21T22:36:58.573Z,67.60
2023-02-21T22:39:27.132Z,67.50
2023-02-21T22:41:54.794Z,68.20
2023-02-21T22:44:25.031Z,67.50
2023-02-21T22:46:59.753Z,67.40
2023-02-21T22:49:28.780Z,67.20
2023-02-21T22:51:57.654Z,67.60
2023-02-21T22:54:26.751Z,67.40
2023-02-21T22:56:59.768Z,67.10
2023-02-21T22:59:27.237Z,68.00
2023-02-21T23:01:58.309Z,68.10
2023-02-21T23:04:26.352Z,68.30
2023-02-21T23:06:58.251Z,68.00
2023-02-21T23:09:30.157Z,67.70
2023-02-21T23:12:00.571Z,67.30
2023-02-21T23:14:34.954Z,67.30
2023-02-21T23:17:03.329Z,67.40
2023-02-21T23:19:32.167Z,68.00
2023-02-21T23:22:00.032Z,68.00
2023-02-21T23:24:28.303Z,67.90
2023-02-21T23:26:55.757Z,68.40
2023-02-21T23:29:26.161Z,68.90
2023-02-21T23:32:09.267Z,69.00
2023-02-21T23:34:40.649Z,68.90
2023-02-21T23:37:12.420Z,68.40
2023-02-21T23:39:41.877Z,68.20
2023-02-21T23:42:11.007Z,68.20
2023-02-21T23:44:40.021Z,68.00
2023-02-21T23:47:07.420Z,68.10
2023-02-21T23:49:34.753Z,68.40
2023-02-21T23:52:02.172Z,68.50
2023-02-21T23:54:29.642Z,68.60
2023-02-21T23:57:00.659Z,68.70
2023-02-21T23:59:28.809Z,68.60
